Huvudsida
METAR-TAF:

METAR-TAF

Flygplatser :

Budapest-Ferenc Liszts internationella flygplats

Budapest, Ungern

latitud: 47-26N, longitud: 019-16E, höjd: 151 m

Aktuellt väderrapport

Denna rapport gjordes för 13 minuter sedan, klockan 14:30 UTC
Vind 6 kt från syd, varierande mellan ost/sydost och väst/sydväst
Temperatur 33°C
Fuktighet 49%
Tryck 1022 hPa
Sikt 10 km eller mer
Inga moln under 1 500 m eller inga cumulonimbus

METAR: LHBP 261430Z 19006KT 120V250 CAVOK 33/21 Q1022 NOSIG

Tid: 16:43 (14:43 UTC)

Väderprognos

Denna rapport gjordes för 3 timmar och 28 minuter sedan, klockan 11:15 UTC
Prognos gäller från 26 kl. 12 UTC till 27 kl. 12 UTC
Vind 3 kt varierande vindriktning
Sikt 10 km eller mer
Inga moln under 1 500 m eller inga cumulonimbus
Blir
från 27 kl. 05 UTC till 27 kl. 07 UTC
Vind 8 kt från väst/sydväst
Blir
från 27 kl. 10 UTC till 27 kl. 12 UTC
Vind 10 kt från väst/nordväst

TAF: LHBP 261115Z 2612/2712 VRB03KT CAVOK BECMG 2705/2707 24008KT BECMG 2710/2712 30010KT

Aktuella väderrapporter och prognoser från 4000 flygplatser (METAR- och TAF-rapporter).

De tillgängliga stationerna syns som gula och röda prickar på kartan.

För musen över prickarna för att se namnen på stationerna.

Klicka sedan för att få väderrapporter och prognoser.

För att ändra kartan: Klicka på de gröna knapparna med ett svart kors på för att zooma in; den gröna knappen med ett streck på för att zooma ut; eller på de gröna pilarna för angränsande kartor.


METAR-TAF: